Terminal Aerodrome Forecast
Issued by NWS Knoxville/Tri Cities, TN

Home | Current Version | Previous Version | Text Only | Print | Product List | Glossary On
Versions: 1 2 3 4 5 6 7 8 9 10 11 12 13 14 15 16 17 18
000
FTUS44 KMRX 242338
TAFTYS
TAF
KTYS 242338Z 2500/2524 23014G20KT P6SM VCSH SCT025 BKN040
     FM250200 24013KT P6SM SCT040 BKN150
     FM250700 23006KT 6SM BR SCT002 BKN050
     FM251100 25006KT P6SM OVC025
     FM251400 25012G20KT P6SM OVC030
     FM251800 25014G22KT P6SM -RA OVC015=

USA.gov is the U.S. government's official web portal to all federal, state and local government web resources and services.